createdAt,value
2022-09-20T00:02:37.604Z,6.60
2022-09-20T00:07:36.225Z,6.70
2022-09-20T00:12:35.345Z,7.00
2022-09-20T00:17:36.451Z,5.70
2022-09-20T00:22:35.589Z,5.70
2022-09-20T00:27:34.137Z,6.80
2022-09-20T00:32:34.095Z,7.00
2022-09-20T00:37:32.663Z,6.10
2022-09-20T00:42:34.373Z,7.30
2022-09-20T00:47:57.786Z,6.90
2022-09-20T00:53:03.295Z,7.60
2022-09-20T00:58:03.045Z,8.20
2022-09-20T01:03:09.687Z,7.30
2022-09-20T01:08:10.515Z,7.40
2022-09-20T01:13:10.063Z,7.70
2022-09-20T01:18:11.477Z,6.70
2022-09-20T01:23:36.073Z,6.70
2022-09-20T01:28:35.380Z,6.30
2022-09-20T01:33:43.102Z,5.40
2022-09-20T01:39:02.921Z,6.90
2022-09-20T01:44:13.585Z,6.30
2022-09-20T01:49:30.540Z,5.70
2022-09-20T01:55:13.925Z,6.60
2022-09-20T02:00:20.020Z,7.40
2022-09-20T02:05:49.205Z,6.40
2022-09-20T02:11:08.450Z,5.10
2022-09-20T02:16:37.773Z,6.30
2022-09-20T02:21:46.619Z,6.70
2022-09-20T02:26:59.286Z,6.80
2022-09-20T02:32:24.484Z,5.60
2022-09-20T02:37:55.408Z,6.90
2022-09-20T02:43:06.399Z,7.20
2022-09-20T02:48:10.485Z,5.40
2022-09-20T02:53:37.709Z,6.10
2022-09-20T02:58:51.890Z,6.70
2022-09-20T03:04:03.834Z,6.90
2022-09-20T03:09:15.183Z,7.00
2022-09-20T03:14:26.157Z,5.40
2022-09-20T03:19:45.899Z,6.20
2022-09-20T03:25:00.608Z,6.30
2022-09-20T03:30:21.425Z,6.70
2022-09-20T03:35:38.759Z,6.50
2022-09-20T03:41:02.217Z,6.10
2022-09-20T03:46:16.900Z,5.40
2022-09-20T03:51:33.092Z,5.30
2022-09-20T03:57:20.379Z,5.50
2022-09-20T04:02:54.757Z,5.20
2022-09-20T04:08:12.813Z,4.80
2022-09-20T04:13:32.427Z,6.20
2022-09-20T04:18:39.926Z,5.70
2022-09-20T04:23:52.509Z,5.60
2022-09-20T04:28:58.745Z,5.90
2022-09-20T04:34:03.429Z,5.20
2022-09-20T04:39:22.021Z,5.10
2022-09-20T04:45:08.113Z,4.20
2022-09-20T04:51:09.725Z,5.50
2022-09-20T04:56:23.208Z,5.00
2022-09-20T05:02:29.466Z,4.80
2022-09-20T05:14:04.631Z,5.20
2022-09-20T05:19:27.024Z,5.70
2022-09-20T05:24:52.945Z,5.40
2022-09-20T05:30:06.803Z,4.80
2022-09-20T05:35:20.928Z,5.10
2022-09-20T05:40:32.081Z,4.70
2022-09-20T05:45:53.919Z,5.00
2022-09-20T05:51:04.049Z,5.40
2022-09-20T05:56:17.153Z,4.90
2022-09-20T06:01:24.828Z,5.40
2022-09-20T06:06:37.517Z,4.80
2022-09-20T06:12:09.857Z,5.60
2022-09-20T06:17:24.854Z,5.40
2022-09-20T06:22:31.394Z,5.60
2022-09-20T06:27:39.394Z,5.60
2022-09-20T06:32:56.120Z,6.00
2022-09-20T06:38:22.027Z,5.20
2022-09-20T06:43:20.811Z,5.40
2022-09-20T06:48:20.261Z,6.20
2022-09-20T06:53:29.204Z,6.10
2022-09-20T06:58:28.796Z,6.10
2022-09-20T07:03:27.596Z,5.30
2022-09-20T07:08:27.085Z,6.20
2022-09-20T07:13:27.668Z,6.00
2022-09-20T07:18:26.786Z,5.50
2022-09-20T07:23:25.277Z,6.60
2022-09-20T07:28:24.685Z,5.80
2022-09-20T07:33:25.170Z,5.50
2022-09-20T07:38:25.176Z,5.10
2022-09-20T07:43:24.456Z,6.70
2022-09-20T07:48:26.017Z,5.70
2022-09-20T07:53:25.163Z,6.60
2022-09-20T07:58:23.825Z,5.10
2022-09-20T08:03:22.671Z,5.00
2022-09-20T08:08:22.245Z,6.10
2022-09-20T08:18:46.411Z,5.50
2022-09-20T08:23:48.376Z,5.30
2022-09-20T08:28:50.127Z,5.10
2022-09-20T08:33:50.553Z,4.60
2022-09-20T08:44:17.392Z,4.50
2022-09-20T08:49:27.560Z,5.00
2022-09-20T08:54:32.169Z,5.30
2022-09-20T08:59:32.141Z,4.50
2022-09-20T09:04:38.991Z,5.50
2022-09-20T09:09:43.743Z,5.10
2022-09-20T09:14:49.720Z,3.70
2022-09-20T09:19:51.645Z,6.10
2022-09-20T09:25:10.932Z,5.80
2022-09-20T09:30:26.474Z,5.30
2022-09-20T09:35:31.938Z,6.10
2022-09-20T09:40:33.230Z,4.70
2022-09-20T09:45:39.894Z,8.40
2022-09-20T09:50:40.261Z,7.00
2022-09-20T09:56:17.097Z,5.80
2022-09-20T10:01:33.627Z,5.00
2022-09-20T10:06:42.320Z,7.80
2022-09-20T10:12:02.166Z,5.20
2022-09-20T10:17:40.490Z,5.70
2022-09-20T10:23:30.460Z,5.10
2022-09-20T10:28:50.753Z,5.10
2022-09-20T10:34:04.905Z,5.50
2022-09-20T10:39:17.978Z,4.60
2022-09-20T10:44:40.189Z,5.10
2022-09-20T10:49:56.793Z,5.00
2022-09-20T10:55:20.523Z,5.30
2022-09-20T11:00:35.477Z,4.30
2022-09-20T11:05:54.481Z,4.40
2022-09-20T11:10:59.761Z,4.60
2022-09-20T11:16:14.913Z,3.90
2022-09-20T11:21:20.787Z,4.30
2022-09-20T11:26:31.939Z,3.90
2022-09-20T11:31:38.818Z,3.40
2022-09-20T11:36:49.180Z,4.00
2022-09-20T11:41:48.571Z,4.10
2022-09-20T11:46:56.149Z,3.60
2022-09-20T11:52:37.106Z,3.70
2022-09-20T11:57:36.955Z,3.10
2022-09-20T12:02:45.231Z,3.90
2022-09-20T12:07:46.785Z,3.70
2022-09-20T12:12:51.388Z,3.60
2022-09-20T12:24:24.340Z,2.90
2022-09-20T12:30:21.875Z,2.90
2022-09-20T12:36:18.264Z,2.60
2022-09-20T12:41:28.330Z,2.50
2022-09-20T12:46:34.446Z,2.70
2022-09-20T12:51:53.911Z,3.10
2022-09-20T12:56:52.995Z,2.90
2022-09-20T13:01:53.537Z,2.50
2022-09-20T13:07:33.448Z,3.10
2022-09-20T13:12:32.967Z,3.00
2022-09-20T13:17:35.694Z,2.80
2022-09-20T13:22:43.618Z,2.90
2022-09-20T13:27:52.726Z,2.80
2022-09-20T13:32:52.569Z,2.00
2022-09-20T13:38:14.490Z,1.60
2022-09-20T13:43:34.434Z,1.60
2022-09-20T13:48:36.327Z,1.50
2022-09-20T13:53:43.763Z,1.00
2022-09-20T13:58:43.329Z,0.80
2022-09-20T14:03:46.087Z,0.60
2022-09-20T14:08:50.915Z,0.40
2022-09-20T14:13:54.412Z,0.60
2022-09-20T14:18:55.415Z,0.50
2022-09-20T14:24:24.885Z,0.50
2022-09-20T14:29:45.011Z,0.30
2022-09-20T14:34:47.109Z,0.40
2022-09-20T14:39:54.295Z,0.40
2022-09-20T14:44:56.973Z,1.00
2022-09-20T14:49:58.161Z,0.80
2022-09-20T14:55:20.945Z,0.20
2022-09-20T15:00:21.486Z,0.10
2022-09-20T15:05:29.789Z,0.10
2022-09-20T15:10:29.768Z,0.20
2022-09-20T15:15:28.890Z,0.20
2022-09-20T15:20:27.919Z,0.30
2022-09-20T15:25:30.149Z,0.10
2022-09-20T15:30:30.537Z,0.20
2022-09-20T15:35:29.103Z,0.30
2022-09-20T15:40:29.227Z,0.20
2022-09-20T15:45:31.155Z,0.20
2022-09-20T15:50:29.873Z,0.40
2022-09-20T15:55:29.568Z,0.90
2022-09-20T16:00:29.697Z,0.60
2022-09-20T16:05:28.395Z,0.50
2022-09-20T16:10:28.248Z,0.70
2022-09-20T16:15:27.925Z,0.70
2022-09-20T16:20:27.627Z,0.60
2022-09-20T16:25:27.146Z,0.60
2022-09-20T16:30:26.257Z,1.30
2022-09-20T16:35:25.572Z,1.00
2022-09-20T16:40:25.375Z,1.00
2022-09-20T16:45:25.480Z,1.20
2022-09-20T16:50:25.558Z,2.10
2022-09-20T16:55:24.286Z,2.00
2022-09-20T17:00:23.824Z,3.10
2022-09-20T17:05:23.407Z,2.80
2022-09-20T17:10:24.391Z,3.30
2022-09-20T17:15:24.713Z,4.00
2022-09-20T17:20:26.261Z,4.20
2022-09-20T17:25:27.690Z,5.30
2022-09-20T17:30:26.731Z,7.00
2022-09-20T17:35:25.238Z,7.40
2022-09-20T17:40:23.759Z,4.30
2022-09-20T17:45:22.691Z,4.40
2022-09-20T17:50:21.833Z,4.00
2022-09-20T17:55:21.297Z,3.00
2022-09-20T18:00:20.733Z,2.80
2022-09-20T18:05:19.634Z,2.40
2022-09-20T18:10:18.911Z,2.80
2022-09-20T18:15:18.359Z,2.40
2022-09-20T18:20:18.233Z,2.80
2022-09-20T18:25:18.110Z,3.20
2022-09-20T18:30:18.231Z,3.70
2022-09-20T18:35:17.180Z,3.10
2022-09-20T18:40:16.799Z,3.10
2022-09-20T18:45:17.618Z,3.40
2022-09-20T18:50:17.032Z,2.70
2022-09-20T18:55:18.119Z,3.60
2022-09-20T19:00:22.791Z,3.40
2022-09-20T19:05:32.406Z,4.10
2022-09-20T19:10:46.240Z,4.90
2022-09-20T19:16:11.739Z,4.40
2022-09-20T19:21:22.998Z,3.50
2022-09-20T19:26:31.213Z,4.10
2022-09-20T19:31:35.056Z,4.50
2022-09-20T19:36:51.511Z,3.80
2022-09-20T19:42:07.368Z,3.70
2022-09-20T19:47:25.157Z,3.80
2022-09-20T19:52:26.388Z,4.00
2022-09-20T19:57:37.564Z,4.00
2022-09-20T20:02:38.127Z,3.70
2022-09-20T20:07:47.714Z,5.30
2022-09-20T20:13:00.953Z,4.60
2022-09-20T20:18:13.309Z,4.50
2022-09-20T20:24:06.806Z,3.90
2022-09-20T20:29:06.121Z,4.20
2022-09-20T20:34:05.401Z,4.20
2022-09-20T20:39:05.158Z,4.30
2022-09-20T20:44:06.528Z,4.50
2022-09-20T20:49:05.859Z,3.20
2022-09-20T20:54:06.686Z,3.40
2022-09-20T20:59:08.320Z,3.60
2022-09-20T21:04:09.515Z,4.40
2022-09-20T21:09:10.468Z,4.70
2022-09-20T21:14:10.306Z,4.70
2022-09-20T21:19:13.189Z,5.00
2022-09-20T21:24:15.342Z,3.90
2022-09-20T21:29:17.431Z,4.50
2022-09-20T21:34:18.522Z,5.10
2022-09-20T21:39:17.931Z,4.20
2022-09-20T21:44:17.681Z,4.50
2022-09-20T21:49:17.910Z,4.60
2022-09-20T21:54:16.538Z,5.30
2022-09-20T21:59:15.759Z,5.70
2022-09-20T22:04:15.634Z,5.30
2022-09-20T22:09:17.700Z,4.90
2022-09-20T22:14:19.950Z,4.60
2022-09-20T22:19:21.042Z,4.90
2022-09-20T22:24:20.811Z,5.30
2022-09-20T22:29:20.085Z,5.00
2022-09-20T22:34:22.751Z,4.90
2022-09-20T22:39:21.786Z,4.00
2022-09-20T22:44:22.751Z,4.70
2022-09-20T22:49:21.573Z,5.60
2022-09-20T22:54:20.661Z,5.10
2022-09-20T22:59:19.181Z,4.50
2022-09-20T23:04:23.659Z,4.00
2022-09-20T23:09:24.461Z,4.10
2022-09-20T23:14:24.353Z,5.40
2022-09-20T23:19:23.269Z,4.60
2022-09-20T23:24:21.889Z,5.20
2022-09-20T23:29:22.832Z,4.10
2022-09-20T23:34:21.576Z,4.00
2022-09-20T23:39:20.737Z,4.50
2022-09-20T23:44:20.026Z,5.30
2022-09-20T23:49:21.788Z,5.10
2022-09-20T23:54:20.581Z,4.30
2022-09-20T23:59:19.134Z,5.20
